Time;durP1;ratioP1;P1;durP2;ratioP2;P2;SDS_P1;SDS_P2;PMS_P1;PMS_P2;Temp;Humidity;BMP_temperature;BMP_pressure;BME280_temperature;BME280_humidity;BME280_pressure;Samples;Min_cycle;Max_cycle;Signal;HPM_P1;HPM_P2
2023/03/11 00:00:15;;;;;;;8.48;0.95;;;;;;;;;;4916998;29;20082;-72
2023/03/11 00:02:41;;;;;;;10.45;1.10;;;;;;;;;;4917636;29;20051;-72
2023/03/11 00:05:08;;;;;;;3.92;0.88;;;;;;;;;;4916529;29;20985;-73
2023/03/11 00:07:36;;;;;;;15.85;1.70;;;;;;;;;;4916323;29;20657;-72
2023/03/11 00:10:03;;;;;;;6.78;1.00;;;;;;;;;;4920030;29;20089;-72
2023/03/11 00:12:29;;;;;;;5.45;1.17;;;;;;;;;;4914736;29;20060;-73
2023/03/11 00:14:55;;;;;;;6.25;1.48;;;;;;;;;;4916727;29;20044;-72
2023/03/11 00:17:21;;;;;;;8.23;0.90;;;;;;;;;;4918140;29;20059;-72
2023/03/11 00:19:47;;;;;;;4.90;0.77;;;;;;;;;;4915146;29;20166;-72
2023/03/11 00:22:13;;;;;;;5.00;0.75;;;;;;;;;;4916321;29;20052;-73
2023/03/11 00:24:40;;;;;;;4.55;1.08;;;;;;;;;;4916965;29;20427;-73
2023/03/11 00:27:06;;;;;;;5.05;0.75;;;;;;;;;;4915669;29;20051;-72
2023/03/11 00:29:32;;;;;;;7.75;1.20;;;;;;;;;;4917273;29;20079;-72
2023/03/11 00:31:58;;;;;;;7.28;1.05;;;;;;;;;;4915869;29;20070;-73
2023/03/11 00:34:24;;;;;;;4.25;0.60;;;;;;;;;;4915144;29;20079;-72
2023/03/11 00:36:50;;;;;;;6.30;0.85;;;;;;;;;;4917752;29;20127;-73
2023/03/11 00:39:17;;;;;;;7.68;0.95;;;;;;;;;;4899639;29;20476;-73
2023/03/11 00:41:43;;;;;;;4.18;0.93;;;;;;;;;;4896688;29;20067;-73
2023/03/11 00:44:11;;;;;;;6.45;0.70;;;;;;;;;;4919171;29;20039;-72
2023/03/11 00:46:37;;;;;;;3.72;0.90;;;;;;;;;;4914094;29;20055;-73
2023/03/11 00:49:03;;;;;;;4.10;1.00;;;;;;;;;;4915509;29;20126;-72
2023/03/11 00:51:29;;;;;;;2.83;0.82;;;;;;;;;;4913496;29;20060;-72
2023/03/11 00:53:56;;;;;;;4.72;1.42;;;;;;;;;;4909010;29;20075;-72
2023/03/11 00:56:22;;;;;;;6.50;1.08;;;;;;;;;;4909892;29;20051;-72
2023/03/11 00:58:48;;;;;;;5.28;0.82;;;;;;;;;;4912117;29;20062;-72
2023/03/11 01:01:16;;;;;;;7.40;0.90;;;;;;;;;;4918268;29;20055;-72
2023/03/11 01:03:43;;;;;;;3.80;0.98;;;;;;;;;;4918637;29;20043;-73
2023/03/11 01:06:09;;;;;;;5.50;0.80;;;;;;;;;;4906764;29;20055;-73
2023/03/11 01:08:36;;;;;;;6.78;0.98;;;;;;;;;;4906839;29;20135;-73
2023/03/11 01:11:03;;;;;;;12.77;1.15;;;;;;;;;;4917309;29;20051;-73
2023/03/11 01:13:29;;;;;;;4.55;1.00;;;;;;;;;;4905166;29;20400;-73
2023/03/11 01:15:56;;;;;;;8.70;0.93;;;;;;;;;;4915415;29;20047;-73
2023/03/11 01:18:22;;;;;;;8.65;1.05;;;;;;;;;;4907097;29;20036;-73
2023/03/11 01:20:49;;;;;;;1.75;0.70;;;;;;;;;;4902675;29;20503;-73
2023/03/11 01:23:16;;;;;;;6.22;1.33;;;;;;;;;;4921040;29;20071;-73
2023/03/11 01:25:42;;;;;;;3.13;0.60;;;;;;;;;;4916172;29;20635;-73
2023/03/11 01:28:09;;;;;;;4.22;0.75;;;;;;;;;;4918914;29;20056;-73
2023/03/11 01:30:36;;;;;;;3.55;0.75;;;;;;;;;;4895166;29;20143;-73
2023/03/11 01:33:04;;;;;;;6.38;1.13;;;;;;;;;;4886358;29;20139;-72
2023/03/11 01:35:31;;;;;;;6.13;1.88;;;;;;;;;;4897599;29;20542;-73
2023/03/11 01:37:57;;;;;;;2.78;0.70;;;;;;;;;;4900593;29;20036;-72
2023/03/11 01:40:26;;;;;;;6.07;1.10;;;;;;;;;;4884169;29;20139;-73
2023/03/11 01:42:52;;;;;;;4.07;0.88;;;;;;;;;;4897589;29;20828;-72
2023/03/11 01:45:31;;;;;;;7.13;1.08;;;;;;;;;;4887987;29;20633;-73
2023/03/11 01:47:57;;;;;;;7.30;0.95;;;;;;;;;;4884438;29;20904;-73
2023/03/11 01:50:25;;;;;;;5.63;1.00;;;;;;;;;;4899499;29;20116;-73
2023/03/11 01:52:51;;;;;;;4.97;0.75;;;;;;;;;;4884191;29;20595;-73
2023/03/11 01:55:18;;;;;;;1.90;0.60;;;;;;;;;;4898765;29;20075;-73
2023/03/11 01:57:46;;;;;;;1.60;0.60;;;;;;;;;;4886619;29;20051;-73
2023/03/11 02:00:14;;;;;;;6.07;0.90;;;;;;;;;;4895005;29;20049;-73
2023/03/11 02:02:43;;;;;;;5.38;0.85;;;;;;;;;;4883382;29;20143;-73
2023/03/11 02:05:10;;;;;;;3.38;0.52;;;;;;;;;;4898213;29;21255;-73
2023/03/11 02:07:38;;;;;;;10.55;1.00;;;;;;;;;;4899090;29;20583;-73
2023/03/11 02:10:06;;;;;;;5.20;1.00;;;;;;;;;;4883987;29;20211;-73
2023/03/11 02:12:34;;;;;;;5.88;1.88;;;;;;;;;;4885275;29;20055;-73
2023/03/11 02:15:01;;;;;;;3.55;0.68;;;;;;;;;;4897545;29;20155;-73
2023/03/11 02:17:27;;;;;;;3.50;0.77;;;;;;;;;;4900667;29;20107;-73
2023/03/11 02:19:54;;;;;;;7.07;1.15;;;;;;;;;;4903024;29;20044;-74
2023/03/11 02:22:20;;;;;;;2.88;1.05;;;;;;;;;;4883190;29;20159;-73
2023/03/11 02:24:53;;;;;;;3.38;0.70;;;;;;;;;;4880228;29;20111;-73
2023/03/11 02:27:20;;;;;;;7.88;0.90;;;;;;;;;;4882775;29;20119;-74
2023/03/11 02:29:48;;;;;;;5.35;0.90;;;;;;;;;;4884722;29;20071;-73
2023/03/11 02:32:15;;;;;;;2.83;0.75;;;;;;;;;;4919268;29;20421;-73
2023/03/11 02:34:41;;;;;;;5.75;0.90;;;;;;;;;;4922623;29;20752;-74
2023/03/11 02:37:08;;;;;;;5.10;1.05;;;;;;;;;;4902789;29;20130;-74
2023/03/11 02:39:35;;;;;;;4.15;0.70;;;;;;;;;;4902845;29;20090;-73
2023/03/11 02:42:05;;;;;;;5.00;0.95;;;;;;;;;;4915545;29;20052;-74
2023/03/11 02:44:31;;;;;;;4.47;1.00;;;;;;;;;;4921124;29;20051;-72
2023/03/11 02:46:57;;;;;;;4.13;0.60;;;;;;;;;;4901680;29;20566;-73
2023/03/11 02:49:23;;;;;;;4.13;0.90;;;;;;;;;;4899424;29;20047;-73
2023/03/11 02:51:51;;;;;;;2.85;0.70;;;;;;;;;;4916560;29;20054;-73
2023/03/11 02:54:17;;;;;;;5.15;0.82;;;;;;;;;;4918451;29;21030;-73
2023/03/11 02:56:43;;;;;;;7.68;1.13;;;;;;;;;;4904613;29;20775;-73
2023/03/11 02:59:10;;;;;;;5.47;0.80;;;;;;;;;;4915068;29;20071;-73
2023/03/11 03:01:36;;;;;;;3.83;1.98;;;;;;;;;;4915964;29;20059;-73
2023/03/11 03:04:02;;;;;;;6.30;0.93;;;;;;;;;;4914365;29;20133;-73
2023/03/11 03:06:28;;;;;;;2.45;0.82;;;;;;;;;;4922138;29;20094;-73
2023/03/11 03:08:55;;;;;;;5.10;0.80;;;;;;;;;;4903238;29;20106;-74
2023/03/11 03:11:21;;;;;;;7.78;1.00;;;;;;;;;;4920790;29;20055;-73
2023/03/11 03:13:47;;;;;;;5.40;0.95;;;;;;;;;;4916889;29;20043;-74
2023/03/11 03:16:13;;;;;;;5.63;0.90;;;;;;;;;;4918730;29;20499;-74
2023/03/11 03:18:39;;;;;;;3.75;0.90;;;;;;;;;;4905297;29;20048;-74
2023/03/11 03:21:06;;;;;;;5.80;1.23;;;;;;;;;;4918973;29;20040;-72
2023/03/11 03:23:34;;;;;;;5.75;0.80;;;;;;;;;;4917413;29;20052;-73
2023/03/11 03:26:01;;;;;;;5.53;0.80;;;;;;;;;;4917709;29;20044;-73
2023/03/11 03:28:27;;;;;;;2.67;0.95;;;;;;;;;;4904479;29;20051;-75
2023/03/11 03:30:54;;;;;;;3.08;0.90;;;;;;;;;;4914860;29;20066;-73
2023/03/11 03:33:20;;;;;;;4.88;1.05;;;;;;;;;;4916876;29;20059;-73
2023/03/11 03:35:46;;;;;;;9.00;1.45;;;;;;;;;;4913497;29;20142;-73
2023/03/11 03:38:12;;;;;;;4.25;0.70;;;;;;;;;;4919521;29;20925;-73
2023/03/11 03:40:39;;;;;;;5.82;0.60;;;;;;;;;;4903440;29;20066;-73
2023/03/11 03:43:05;;;;;;;4.72;0.95;;;;;;;;;;4913582;29;20036;-73
2023/03/11 03:45:32;;;;;;;3.42;0.75;;;;;;;;;;4908763;29;20048;-73
2023/03/11 03:47:58;;;;;;;1.98;0.75;;;;;;;;;;4917127;29;20048;-73
2023/03/11 03:50:24;;;;;;;3.60;0.82;;;;;;;;;;4916485;29;20059;-74
2023/03/11 03:52:50;;;;;;;8.13;1.80;;;;;;;;;;4916531;29;20440;-73
2023/03/11 03:55:17;;;;;;;8.48;0.88;;;;;;;;;;4896875;29;20595;-73
2023/03/11 03:57:43;;;;;;;5.03;0.90;;;;;;;;;;4913659;29;20044;-74
2023/03/11 04:00:09;;;;;;;7.82;1.13;;;;;;;;;;4901614;29;20044;-74
2023/03/11 04:02:35;;;;;;;7.88;1.13;;;;;;;;;;4902957;29;20115;-73
2023/03/11 04:05:02;;;;;;;6.15;0.88;;;;;;;;;;4901740;29;20039;-73
2023/03/11 04:07:28;;;;;;;8.27;0.85;;;;;;;;;;4915757;29;20055;-73
2023/03/11 04:09:54;;;;;;;5.00;1.00;;;;;;;;;;4916838;29;20052;-73
2023/03/11 04:12:20;;;;;;;3.70;1.00;;;;;;;;;;4916120;29;20087;-73
2023/03/11 04:14:47;;;;;;;4.60;0.82;;;;;;;;;;4916507;29;20084;-73
2023/03/11 04:17:16;;;;;;;4.00;0.82;;;;;;;;;;4916320;29;20107;-73
2023/03/11 04:19:42;;;;;;;3.10;0.80;;;;;;;;;;4902078;29;20074;-73
2023/03/11 04:22:09;;;;;;;4.65;0.70;;;;;;;;;;4899663;29;20087;-75
2023/03/11 04:24:35;;;;;;;4.28;1.10;;;;;;;;;;4898262;29;20051;-74
2023/03/11 04:27:01;;;;;;;7.40;1.02;;;;;;;;;;4915884;29;21048;-74
2023/03/11 04:29:27;;;;;;;8.02;1.00;;;;;;;;;;4909245;29;20451;-74
2023/03/11 04:31:54;;;;;;;3.83;0.68;;;;;;;;;;4918091;29;20082;-74
2023/03/11 04:34:20;;;;;;;5.43;0.75;;;;;;;;;;4936504;29;20066;-72
2023/03/11 04:36:46;;;;;;;7.07;1.20;;;;;;;;;;4918396;29;20063;-73
2023/03/11 04:39:12;;;;;;;4.93;0.90;;;;;;;;;;4914527;29;20040;-74
2023/03/11 04:41:38;;;;;;;6.28;1.10;;;;;;;;;;4919673;29;20052;-75
2023/03/11 04:44:05;;;;;;;6.18;0.88;;;;;;;;;;4921308;29;20122;-74
2023/03/11 04:46:31;;;;;;;11.27;1.25;;;;;;;;;;4917417;29;20142;-72
2023/03/11 04:48:57;;;;;;;9.75;1.48;;;;;;;;;;4918058;29;21367;-72
2023/03/11 04:51:23;;;;;;;7.43;1.25;;;;;;;;;;4921003;29;20176;-74
2023/03/11 04:53:49;;;;;;;7.20;0.98;;;;;;;;;;4926837;29;20066;-73
2023/03/11 04:56:15;;;;;;;5.32;0.80;;;;;;;;;;4918875;29;20489;-73
2023/03/11 04:58:42;;;;;;;6.82;1.00;;;;;;;;;;4920868;29;20079;-73
2023/03/11 05:01:08;;;;;;;5.05;0.98;;;;;;;;;;4918711;29;20052;-73
2023/03/11 05:03:34;;;;;;;9.00;0.85;;;;;;;;;;4922144;29;20047;-73
2023/03/11 05:06:00;;;;;;;4.15;1.17;;;;;;;;;;4922368;29;20495;-73
2023/03/11 05:08:26;;;;;;;8.38;0.90;;;;;;;;;;4919465;29;20531;-73
2023/03/11 05:10:53;;;;;;;6.63;1.10;;;;;;;;;;4919724;29;20472;-74
2023/03/11 05:13:19;;;;;;;3.67;0.60;;;;;;;;;;4919650;29;20055;-74
2023/03/11 05:15:46;;;;;;;4.65;0.70;;;;;;;;;;4919129;29;20404;-73
2023/03/11 05:18:12;;;;;;;6.15;0.95;;;;;;;;;;4919469;29;20086;-74
2023/03/11 05:20:39;;;;;;;5.72;0.85;;;;;;;;;;4918508;29;20663;-74
2023/03/11 05:23:05;;;;;;;3.13;0.60;;;;;;;;;;4937899;29;20079;-73
2023/03/11 05:25:31;;;;;;;3.20;0.70;;;;;;;;;;4921778;29;20048;-73
2023/03/11 05:27:57;;;;;;;2.80;0.52;;;;;;;;;;4921042;29;20275;-73
2023/03/11 05:30:24;;;;;;;6.57;1.02;;;;;;;;;;4919564;29;20051;-73
2023/03/11 05:32:50;;;;;;;3.60;0.70;;;;;;;;;;4920475;29;20083;-73
2023/03/11 05:35:16;;;;;;;6.07;2.35;;;;;;;;;;4918774;29;20112;-73
2023/03/11 05:37:43;;;;;;;5.90;1.10;;;;;;;;;;4915557;29;20129;-74
2023/03/11 05:40:10;;;;;;;4.95;0.88;;;;;;;;;;4915423;29;20099;-73
2023/03/11 05:42:39;;;;;;;7.05;0.98;;;;;;;;;;4915758;29;20055;-73
2023/03/11 05:45:05;;;;;;;7.95;0.95;;;;;;;;;;4934549;29;20052;-73
2023/03/11 05:47:31;;;;;;;7.35;0.80;;;;;;;;;;4921538;29;20044;-73
2023/03/11 05:49:57;;;;;;;4.32;0.63;;;;;;;;;;4915834;29;20043;-73
2023/03/11 05:52:23;;;;;;;5.97;0.60;;;;;;;;;;4918763;29;21718;-73
2023/03/11 05:54:50;;;;;;;1.73;0.73;;;;;;;;;;4917762;29;20044;-73
2023/03/11 05:57:17;;;;;;;7.30;0.80;;;;;;;;;;4915321;29;20138;-73
2023/03/11 05:59:43;;;;;;;7.43;0.93;;;;;;;;;;4920633;29;20404;-73
2023/03/11 06:02:09;;;;;;;6.10;0.90;;;;;;;;;;4921623;29;20290;-73
2023/03/11 06:04:35;;;;;;;3.78;0.70;;;;;;;;;;4917028;29;20048;-72
2023/03/11 06:07:01;;;;;;;1.30;0.50;;;;;;;;;;4918693;29;20067;-73
2023/03/11 06:09:28;;;;;;;4.40;0.60;;;;;;;;;;4919856;29;20043;-73
2023/03/11 06:11:54;;;;;;;3.90;0.82;;;;;;;;;;4919458;29;20044;-73
2023/03/11 06:14:20;;;;;;;13.25;1.13;;;;;;;;;;4917053;29;20067;-73
2023/03/11 06:16:46;;;;;;;6.90;1.45;;;;;;;;;;4919893;29;20400;-73
2023/03/11 06:19:13;;;;;;;8.07;2.13;;;;;;;;;;4918414;29;20040;-73
2023/03/11 06:21:39;;;;;;;5.72;0.73;;;;;;;;;;4928166;29;20051;-73
2023/03/11 06:24:06;;;;;;;3.67;0.73;;;;;;;;;;4916614;29;20597;-73
2023/03/11 06:26:32;;;;;;;3.83;0.90;;;;;;;;;;4920825;29;20179;-79
2023/03/11 06:28:58;;;;;;;4.70;0.80;;;;;;;;;;4930591;29;20058;-73
2023/03/11 06:31:26;;;;;;;6.53;0.52;;;;;;;;;;4918923;29;20119;-74
2023/03/11 06:33:54;;;;;;;4.85;0.80;;;;;;;;;;4918591;29;20112;-73
2023/03/11 06:36:21;;;;;;;3.25;0.90;;;;;;;;;;4922743;29;20050;-73
2023/03/11 06:38:48;;;;;;;3.70;0.88;;;;;;;;;;4922810;29;20099;-73
2023/03/11 06:41:15;;;;;;;9.13;1.45;;;;;;;;;;4912494;29;20062;-73
2023/03/11 06:43:41;;;;;;;4.88;1.70;;;;;;;;;;4908299;29;20624;-73
2023/03/11 06:46:09;;;;;;;6.88;1.08;;;;;;;;;;4914059;29;20078;-73
2023/03/11 06:48:35;;;;;;;3.67;0.90;;;;;;;;;;4920048;28;20048;-72
2023/03/11 06:51:01;;;;;;;9.05;0.93;;;;;;;;;;4906812;29;20547;-71
2023/03/11 06:53:28;;;;;;;2.88;0.70;;;;;;;;;;4920868;29;20047;-71
2023/03/11 06:56:03;;;;;;;6.68;0.98;;;;;;;;;;4897362;29;20047;-73
2023/03/11 06:58:30;;;;;;;7.63;1.33;;;;;;;;;;4908266;29;20075;-73
2023/03/11 07:01:01;;;;;;;5.13;1.00;;;;;;;;;;4914891;29;20091;-73
2023/03/11 07:03:27;;;;;;;4.22;0.90;;;;;;;;;;4921602;29;20047;-73
2023/03/11 07:05:53;;;;;;;6.70;1.05;;;;;;;;;;4924931;29;20385;-72
2023/03/11 07:08:19;;;;;;;4.50;1.10;;;;;;;;;;4903606;29;20387;-72
2023/03/11 07:10:47;;;;;;;4.28;1.23;;;;;;;;;;4922361;29;20457;-72
2023/03/11 07:13:14;;;;;;;4.60;0.90;;;;;;;;;;4911961;29;20048;-72
2023/03/11 07:15:40;;;;;;;7.78;1.30;;;;;;;;;;4923913;29;20567;-74
2023/03/11 07:18:06;;;;;;;9.32;1.20;;;;;;;;;;4920550;29;20043;-74
2023/03/11 07:20:32;;;;;;;5.60;1.20;;;;;;;;;;4919599;29;20055;-74
2023/03/11 07:22:58;;;;;;;4.57;1.25;;;;;;;;;;4903227;29;20565;-74
2023/03/11 07:25:24;;;;;;;4.55;1.30;;;;;;;;;;4919407;29;20136;-73
2023/03/11 07:27:50;;;;;;;8.98;1.35;;;;;;;;;;4916518;29;20139;-74
2023/03/11 07:30:17;;;;;;;5.72;1.25;;;;;;;;;;4905014;29;20206;-69
2023/03/11 07:32:43;;;;;;;3.90;1.05;;;;;;;;;;4901305;29;20040;-69
2023/03/11 07:35:09;;;;;;;5.00;1.05;;;;;;;;;;4903326;29;20134;-70
2023/03/11 07:37:35;;;;;;;10.38;3.53;;;;;;;;;;4902029;29;20178;-70
2023/03/11 07:40:01;;;;;;;8.35;1.60;;;;;;;;;;4900407;29;20066;-70
2023/03/11 07:42:28;;;;;;;9.20;1.48;;;;;;;;;;4889100;29;20051;-71
2023/03/11 07:44:54;;;;;;;6.03;1.20;;;;;;;;;;4895857;29;20051;-76
2023/03/11 07:47:20;;;;;;;9.32;1.70;;;;;;;;;;4887154;29;20044;-70
2023/03/11 07:49:46;;;;;;;7.25;2.63;;;;;;;;;;4887909;29;20583;-71
2023/03/11 07:52:13;;;;;;;7.63;1.52;;;;;;;;;;4888181;29;20159;-68
2023/03/11 07:54:39;;;;;;;6.53;1.70;;;;;;;;;;4901034;29;20049;-69
2023/03/11 07:57:06;;;;;;;8.02;2.15;;;;;;;;;;4904690;29;20049;-79
2023/03/11 07:59:32;;;;;;;7.03;1.77;;;;;;;;;;4901254;29;20642;-69
2023/03/11 08:01:58;;;;;;;8.63;1.65;;;;;;;;;;4906040;29;20051;-70
2023/03/11 08:04:24;;;;;;;10.95;1.50;;;;;;;;;;4892143;29;20048;-70
2023/03/11 08:06:50;;;;;;;3.88;1.10;;;;;;;;;;4907828;29;20052;-70
2023/03/11 08:09:17;;;;;;;9.85;1.30;;;;;;;;;;4903129;29;20482;-68
2023/03/11 08:11:43;;;;;;;18.40;1.70;;;;;;;;;;4907952;29;20063;-70
2023/03/11 08:14:10;;;;;;;7.22;1.42;;;;;;;;;;4903905;29;20044;-68
2023/03/11 08:16:36;;;;;;;5.85;1.67;;;;;;;;;;4903653;29;20520;-70
2023/03/11 08:19:02;;;;;;;4.78;1.60;;;;;;;;;;4905337;29;20375;-69
2023/03/11 08:21:30;;;;;;;14.20;1.60;;;;;;;;;;4911840;29;20461;-71
2023/03/11 08:23:57;;;;;;;4.88;1.73;;;;;;;;;;4910277;29;20132;-71
2023/03/11 08:26:24;;;;;;;5.97;1.40;;;;;;;;;;4911105;29;20381;-72
2023/03/11 08:28:50;;;;;;;6.03;1.23;;;;;;;;;;4901511;29;20472;-73
2023/03/11 08:31:17;;;;;;;4.93;1.23;;;;;;;;;;4898304;29;20469;-71
2023/03/11 08:33:44;;;;;;;6.25;1.55;;;;;;;;;;4874835;29;20049;-72
2023/03/11 08:36:11;;;;;;;5.97;1.70;;;;;;;;;;4897599;29;20056;-71
2023/03/11 08:38:37;;;;;;;9.40;1.77;;;;;;;;;;4894281;29;20049;-72
2023/03/11 08:41:04;;;;;;;5.05;1.33;;;;;;;;;;4882283;29;20456;-72
2023/03/11 08:43:30;;;;;;;10.75;1.88;;;;;;;;;;4896680;29;20170;-71
2023/03/11 08:45:56;;;;;;;11.45;2.15;;;;;;;;;;4892261;29;20059;-72
2023/03/11 08:48:24;;;;;;;11.55;1.75;;;;;;;;;;4910289;29;20044;-71
2023/03/11 08:50:50;;;;;;;6.85;1.65;;;;;;;;;;4894753;29;20920;-72
2023/03/11 08:53:16;;;;;;;5.82;1.50;;;;;;;;;;4894772;29;20058;-72
2023/03/11 08:55:43;;;;;;;7.95;1.70;;;;;;;;;;4908225;29;20045;-72
2023/03/11 08:58:09;;;;;;;6.07;1.40;;;;;;;;;;4913029;29;20122;-72
2023/03/11 09:00:35;;;;;;;7.38;2.38;;;;;;;;;;4910518;29;20112;-72
2023/03/11 09:03:01;;;;;;;10.13;2.55;;;;;;;;;;4913037;29;20048;-72
2023/03/11 09:05:27;;;;;;;12.70;2.67;;;;;;;;;;4896807;29;20076;-72
2023/03/11 09:07:53;;;;;;;6.05;1.67;;;;;;;;;;4912436;29;20668;-72
2023/03/11 09:10:20;;;;;;;8.40;1.75;;;;;;;;;;4911585;29;20040;-72
2023/03/11 09:12:46;;;;;;;9.13;2.17;;;;;;;;;;4895900;29;20099;-72
2023/03/11 09:15:12;;;;;;;7.15;1.80;;;;;;;;;;4913414;29;20465;-73
2023/03/11 09:17:38;;;;;;;7.05;1.45;;;;;;;;;;4912312;29;20088;-73
2023/03/11 09:20:05;;;;;;;7.30;1.55;;;;;;;;;;4911579;29;20052;-73
2023/03/11 09:22:31;;;;;;;11.55;2.15;;;;;;;;;;4899025;29;20052;-73
2023/03/11 09:24:58;;;;;;;8.80;1.52;;;;;;;;;;4906141;29;20518;-73
2023/03/11 09:27:24;;;;;;;11.80;1.80;;;;;;;;;;4899734;29;20048;-73
2023/03/11 09:29:50;;;;;;;12.65;1.90;;;;;;;;;;4898418;29;20051;-72
2023/03/11 09:32:16;;;;;;;6.00;1.75;;;;;;;;;;4922183;29;20054;-73
2023/03/11 09:34:43;;;;;;;5.45;1.20;;;;;;;;;;4936188;29;20043;-73
2023/03/11 09:37:09;;;;;;;5.97;1.48;;;;;;;;;;4936964;29;20202;-73
2023/03/11 09:39:35;;;;;;;6.63;1.65;;;;;;;;;;4919006;29;20547;-73
2023/03/11 09:42:03;;;;;;;6.75;1.50;;;;;;;;;;4915590;29;20059;-73
2023/03/11 09:44:36;;;;;;;5.53;1.38;;;;;;;;;;4936837;29;20118;-73
2023/03/11 09:47:09;;;;;;;14.80;1.67;;;;;;;;;;4936290;29;20050;-73
2023/03/11 09:49:50;;;;;;;7.68;1.92;;;;;;;;;;4936188;29;20047;-73
2023/03/11 09:52:23;;;;;;;6.28;1.60;;;;;;;;;;4913564;29;20100;-73
2023/03/11 09:54:52;;;;;;;8.60;1.42;;;;;;;;;;4929686;29;20044;-72
2023/03/11 09:57:21;;;;;;;11.32;1.60;;;;;;;;;;4931541;29;20086;-72
2023/03/11 09:59:47;;;;;;;8.48;1.80;;;;;;;;;;4913366;29;20075;-73
2023/03/11 10:02:16;;;;;;;8.07;1.55;;;;;;;;;;4912937;29;20044;-72
2023/03/11 10:04:48;;;;;;;11.15;1.45;;;;;;;;;;4932934;29;20443;-73
2023/03/11 10:07:20;;;;;;;8.25;1.60;;;;;;;;;;4935402;29;20052;-72
2023/03/11 10:09:50;;;;;;;6.78;1.30;;;;;;;;;;4934202;29;20087;-72
2023/03/11 10:12:22;;;;;;;7.57;1.30;;;;;;;;;;4931684;29;20043;-72
2023/03/11 10:15:00;;;;;;;6.30;1.52;;;;;;;;;;4929067;29;20405;-72
2023/03/11 10:17:26;;;;;;;7.10;1.42;;;;;;;;;;4903773;29;20044;-72
2023/03/11 10:19:52;;;;;;;5.90;2.25;;;;;;;;;;4915694;29;20055;-73
2023/03/11 10:22:25;;;;;;;10.90;2.45;;;;;;;;;;4916632;29;20098;-72
2023/03/11 10:24:56;;;;;;;7.05;1.83;;;;;;;;;;4914973;29;20048;-72
2023/03/11 10:27:26;;;;;;;5.43;1.17;;;;;;;;;;4935991;29;20559;-72
2023/03/11 10:30:06;;;;;;;6.80;1.08;;;;;;;;;;4908065;29;20048;-71
2023/03/11 10:32:38;;;;;;;8.00;1.55;;;;;;;;;;4935891;29;20054;-72
2023/03/11 10:35:15;;;;;;;9.07;1.40;;;;;;;;;;4935872;29;20040;-72
2023/03/11 10:37:47;;;;;;;7.78;1.13;;;;;;;;;;4917888;29;20059;-72
2023/03/11 10:40:18;;;;;;;5.70;0.98;;;;;;;;;;4935731;29;20047;-72
2023/03/11 10:42:45;;;;;;;6.07;1.20;;;;;;;;;;4919300;29;20059;-70
2023/03/11 10:45:13;;;;;;;17.52;1.88;;;;;;;;;;4912142;29;20048;-72
2023/03/11 10:47:39;;;;;;;7.63;1.30;;;;;;;;;;4918596;29;20484;-72
2023/03/11 10:50:07;;;;;;;5.80;1.17;;;;;;;;;;4918789;29;20052;-72
2023/03/11 10:52:41;;;;;;;6.18;1.63;;;;;;;;;;4934570;29;20523;-72
2023/03/11 10:55:07;;;;;;;8.02;1.40;;;;;;;;;;4914856;29;20071;-72
2023/03/11 10:57:35;;;;;;;8.90;1.63;;;;;;;;;;4931189;29;20131;-72
2023/03/11 11:00:08;;;;;;;10.63;1.33;;;;;;;;;;4930445;29;20576;-72
2023/03/11 11:02:50;;;;;;;8.80;1.15;;;;;;;;;;4930116;29;20054;-72
2023/03/11 11:05:17;;;;;;;6.80;1.30;;;;;;;;;;4924913;29;20452;-72
2023/03/11 11:07:45;;;;;;;5.63;0.90;;;;;;;;;;4927549;29;20107;-70
2023/03/11 11:10:11;;;;;;;5.15;1.52;;;;;;;;;;4918817;29;20040;-71
2023/03/11 11:12:38;;;;;;;7.15;1.25;;;;;;;;;;4908778;29;20381;-80
2023/03/11 11:15:04;;;;;;;11.95;1.30;;;;;;;;;;4917667;29;20076;-68
2023/03/11 11:17:33;;;;;;;4.90;0.90;;;;;;;;;;4921707;29;20135;-79
2023/03/11 11:20:03;;;;;;;6.38;1.17;;;;;;;;;;4916609;29;21291;-72
2023/03/11 11:22:31;;;;;;;10.43;1.40;;;;;;;;;;4914773;29;20067;-70
2023/03/11 11:24:57;;;;;;;5.80;1.10;;;;;;;;;;4923931;29;20365;-69
2023/03/11 11:27:24;;;;;;;6.95;1.20;;;;;;;;;;4921307;29;20039;-67
2023/03/11 11:30:13;;;;;;;7.15;1.38;;;;;;;;;;4925557;29;20050;-66
2023/03/11 11:32:39;;;;;;;9.35;1.90;;;;;;;;;;4908699;29;20059;-67
2023/03/11 11:35:07;;;;;;;5.00;1.15;;;;;;;;;;4923749;29;20373;-67
2023/03/11 11:37:36;;;;;;;5.13;1.10;;;;;;;;;;4924172;29;20117;-67
2023/03/11 11:40:09;;;;;;;4.05;0.80;;;;;;;;;;4923802;29;20135;-67
2023/03/11 11:42:37;;;;;;;6.40;1.02;;;;;;;;;;4924544;29;20488;-67
2023/03/11 11:45:10;;;;;;;7.32;1.40;;;;;;;;;;4927900;29;20119;-67
2023/03/11 11:47:37;;;;;;;3.85;1.08;;;;;;;;;;4921864;29;20503;-66
2023/03/11 11:50:06;;;;;;;4.82;1.25;;;;;;;;;;4908084;29;20054;-66
2023/03/11 11:52:34;;;;;;;3.70;0.90;;;;;;;;;;4924518;29;20116;-67
2023/03/11 11:55:03;;;;;;;4.65;1.38;;;;;;;;;;4918099;29;20396;-67
2023/03/11 11:57:29;;;;;;;5.28;1.02;;;;;;;;;;4918079;29;20087;-66
2023/03/11 11:59:56;;;;;;;6.60;1.30;;;;;;;;;;4916905;29;20106;-75
2023/03/11 12:02:23;;;;;;;7.07;2.17;;;;;;;;;;4920095;29;20048;-68
2023/03/11 12:04:53;;;;;;;5.70;1.05;;;;;;;;;;4921097;29;20062;-69
2023/03/11 12:07:24;;;;;;;6.07;1.10;;;;;;;;;;4920932;29;20459;-69
2023/03/11 12:09:57;;;;;;;5.03;1.17;;;;;;;;;;4919059;29;20384;-67
2023/03/11 12:12:30;;;;;;;3.10;0.90;;;;;;;;;;4925433;29;20097;-66
2023/03/11 12:15:01;;;;;;;6.53;1.23;;;;;;;;;;4919772;29;20048;-66
2023/03/11 12:17:29;;;;;;;5.32;1.30;;;;;;;;;;4919944;29;20468;-66
2023/03/11 12:20:00;;;;;;;8.25;1.80;;;;;;;;;;4921619;29;20043;-66
2023/03/11 12:22:27;;;;;;;7.75;1.20;;;;;;;;;;4919681;29;20044;-66
2023/03/11 12:25:12;;;;;;;8.27;1.35;;;;;;;;;;4919819;29;20055;-73
2023/03/11 12:27:44;;;;;;;8.50;1.20;;;;;;;;;;4920417;29;20447;-67
2023/03/11 12:30:14;;;;;;;6.85;1.38;;;;;;;;;;4925022;29;20055;-66
2023/03/11 12:32:43;;;;;;;7.25;1.48;;;;;;;;;;4911419;29;20412;-68
2023/03/11 12:35:19;;;;;;;9.80;1.38;;;;;;;;;;4923962;29;20040;-66
2023/03/11 12:37:45;;;;;;;13.30;1.83;;;;;;;;;;4920084;29;20099;-66
2023/03/11 12:40:32;;;;;;;5.50;0.90;;;;;;;;;;4922468;29;20510;-77
2023/03/11 12:42:58;;;;;;;4.07;1.13;;;;;;;;;;4910181;29;20110;-69
2023/03/11 12:45:43;;;;;;;9.63;1.20;;;;;;;;;;4923771;29;20036;-70
2023/03/11 12:48:26;;;;;;;6.55;1.30;;;;;;;;;;4923476;29;20780;-74
2023/03/11 12:50:53;;;;;;;7.00;1.58;;;;;;;;;;4913836;29;20136;-71
2023/03/11 12:53:20;;;;;;;5.95;1.42;;;;;;;;;;4929463;29;20051;-71
2023/03/11 12:56:01;;;;;;;4.47;0.90;;;;;;;;;;4914462;29;20123;-69
2023/03/11 12:58:37;;;;;;;8.73;0.77;;;;;;;;;;4927732;29;20051;-71
2023/03/11 13:01:09;;;;;;;5.22;0.80;;;;;;;;;;4924553;29;20039;-68
2023/03/11 13:03:41;;;;;;;2.78;0.90;;;;;;;;;;4930109;29;20642;-75
2023/03/11 13:06:25;;;;;;;5.57;1.02;;;;;;;;;;4929727;29;20039;-71
2023/03/11 13:08:54;;;;;;;3.60;0.57;;;;;;;;;;4915742;29;20039;-67
2023/03/11 13:11:32;;;;;;;5.43;0.70;;;;;;;;;;4929172;29;20558;-67
2023/03/11 13:14:11;;;;;;;4.57;1.35;;;;;;;;;;4918891;29;20094;-72
2023/03/11 13:16:38;;;;;;;2.13;0.70;;;;;;;;;;4909255;29;20047;-68
2023/03/11 13:19:23;;;;;;;6.22;1.00;;;;;;;;;;4924398;29;20055;-69
2023/03/11 13:21:49;;;;;;;2.80;0.82;;;;;;;;;;4922923;29;20047;-66
2023/03/11 13:24:20;;;;;;;3.00;1.05;;;;;;;;;;4923040;29;20433;-67
2023/03/11 13:26:51;;;;;;;5.53;0.73;;;;;;;;;;4925306;29;20483;-67
2023/03/11 13:29:21;;;;;;;6.68;1.15;;;;;;;;;;4905069;29;20067;-66
2023/03/11 13:31:51;;;;;;;8.40;1.08;;;;;;;;;;4888090;29;20064;-66
2023/03/11 13:34:26;;;;;;;5.53;1.00;;;;;;;;;;4908116;29;20130;-66
2023/03/11 13:37:03;;;;;;;4.43;0.77;;;;;;;;;;4908002;29;20078;-67
2023/03/11 13:39:36;;;;;;;4.72;1.30;;;;;;;;;;4905774;29;20407;-67
2023/03/11 13:42:04;;;;;;;3.65;0.73;;;;;;;;;;4903286;29;20516;-66
2023/03/11 13:44:34;;;;;;;6.75;0.93;;;;;;;;;;4889840;29;20048;-66
2023/03/11 13:47:04;;;;;;;4.15;0.80;;;;;;;;;;4893340;29;20075;-66
2023/03/11 13:49:33;;;;;;;6.57;0.90;;;;;;;;;;4894428;29;20040;-66
2023/03/11 13:52:01;;;;;;;3.10;0.68;;;;;;;;;;4894106;29;20067;-66
2023/03/11 13:54:34;;;;;;;5.82;0.88;;;;;;;;;;4907969;29;20476;-66
2023/03/11 13:57:01;;;;;;;5.60;0.80;;;;;;;;;;4911454;29;20107;-66
2023/03/11 13:59:29;;;;;;;5.57;0.70;;;;;;;;;;4906088;29;20048;-66
2023/03/11 14:01:58;;;;;;;5.82;0.93;;;;;;;;;;4903169;29;20568;-66
2023/03/11 14:04:27;;;;;;;6.70;0.65;;;;;;;;;;4904434;29;20070;-66
2023/03/11 14:06:53;;;;;;;5.25;1.25;;;;;;;;;;4904284;29;20048;-66
2023/03/11 14:09:20;;;;;;;6.18;0.70;;;;;;;;;;4908061;29;20515;-66
2023/03/11 14:11:47;;;;;;;4.40;0.70;;;;;;;;;;4910944;29;20047;-66
2023/03/11 14:14:30;;;;;;;7.45;1.05;;;;;;;;;;4910587;29;20428;-66
2023/03/11 14:16:57;;;;;;;3.28;0.70;;;;;;;;;;4909102;29;20051;-66
2023/03/11 14:19:23;;;;;;;6.57;0.95;;;;;;;;;;4909341;29;20595;-66
2023/03/11 14:21:51;;;;;;;2.80;0.65;;;;;;;;;;4910291;29;20048;-66
2023/03/11 14:24:18;;;;;;;3.72;0.73;;;;;;;;;;4909682;29;20484;-66
2023/03/11 14:26:46;;;;;;;3.78;0.90;;;;;;;;;;4894180;29;20103;-66
2023/03/11 14:29:17;;;;;;;4.15;1.70;;;;;;;;;;4909255;29;20445;-66
2023/03/11 14:31:45;;;;;;;1.88;0.70;;;;;;;;;;4893610;29;20135;-66
2023/03/11 14:34:15;;;;;;;4.00;0.60;;;;;;;;;;4900807;29;20056;-66
2023/03/11 14:36:47;;;;;;;5.18;1.00;;;;;;;;;;4904440;29;20152;-66
2023/03/11 14:39:25;;;;;;;4.68;0.60;;;;;;;;;;4890701;29;20055;-66
2023/03/11 14:41:54;;;;;;;7.10;0.95;;;;;;;;;;4890518;29;20067;-66
2023/03/11 14:44:21;;;;;;;4.93;1.10;;;;;;;;;;4909373;29;20047;-66
2023/03/11 14:46:47;;;;;;;4.78;0.90;;;;;;;;;;4897471;29;20516;-66